Tasman Sea — WDB5559 — position and weather

sailwx.info

Track history (hours):
 
Tides and Currents Weather Stations Pressure Air Temp Water Temp Dewpoint Dewpoint Depression Visibility Wind Speed Wind Dir Waves Ship Positions

Tasman Sea

Owner: Kirby Offshore Marine, LLC, Staten Island, NY. More information available from US FCC via Universal Licensing System and Coast Guard Vessel Documentation Center.

Last reported at 2015-May-22 00:33 UTC. Time now 2015-May-22 22:09 UTC.
Position N 42°27' W 070°46'.

Length 38 m; draft 5 m.

Type: Tug. MMSI: 366910960.

Date/timePositionNaut miles runAvg speedWind from/ knotsBaromVisibWave heightAir tempDewpointWater temp
2015-May-22 00:33N 42°27' W 070°46'7 6.7
2015-May-21 23:31N 42°32' W 070°39'15 6.8
2015-May-21 21:15N 42°44' W 070°27'5 7.3
2015-May-21 20:32N 42°49' W 070°25'8 7.7
2015-May-21 19:31N 42°57' W 070°22'78 2.2
2015-May-20 08:33N 41°40' W 070°41'0 0.0
2015-May-20 03:05N 41°40' W 070°41'0 0.0
2015-May-20 02:33N 41°40' W 070°41'0 0.0
2015-May-20 01:33N 41°40' W 070°41'0 0.0
2015-May-20 00:34N 41°40' W 070°41'0 0.0
2015-May-19 23:33N 41°40' W 070°41'2 2.1
2015-May-19 22:25N 41°38' W 070°42'6 6.4
2015-May-19 21:33N 41°33' W 070°45'7 6.8
2015-May-19 20:29N 41°29' W 070°54'7 6.6
2015-May-19 19:25N 41°26' W 071°02'6 6.6
2015-May-19 18:33N 41°21' W 071°06'7 6.8
2015-May-19 17:33N 41°16' W 071°12'7 6.9
2015-May-19 16:34N 41°10' W 071°18'7 6.7
2015-May-19 15:33N 41°07' W 071°25'7 6.6
2015-May-19 14:33N 41°05' W 071°34'6 6.3
2015-May-19 13:33N 41°03' W 071°41'7 6.5
2015-May-19 12:33N 41°00' W 071°49'7 6.6
2015-May-19 11:34N 40°58' W 071°57'6 6.4
2015-May-19 10:33N 40°55' W 072°05'6 6.2
2015-May-19 09:33N 40°53' W 072°13'6 6.2
2015-May-19 08:33N 40°51' W 072°20'6 6.1
2015-May-19 07:34N 40°48' W 072°28'6 6.2
2015-May-19 06:34N 40°46' W 072°35'7 6.4
2015-May-19 05:30N 40°43' W 072°44'6 6.5
2015-May-19 04:33N 40°41' W 072°51'6 6.5
2015-May-19 03:33N 40°39' W 072°59'7 6.5
2015-May-19 02:32N 40°38' W 073°08'7 6.5
2015-May-19 01:24N 40°35' W 073°17'5 6.3
2015-May-19 00:33N 40°34' W 073°24'6 5.9
2015-May-18 23:32N 40°32' W 073°31'6 5.5
2015-May-18 22:28N 40°31' W 073°39'12 5.6
2015-May-18 20:22N 40°29' W 073°54'5 6.7
2015-May-18 19:33N 40°31' W 074°01'8 8.0
2015-May-18 18:34N 40°39' W 074°04'6 6.1
2015-May-18 17:33N 40°38' W 074°12'3 1.2
2015-May-18 15:27N 40°35' W 074°13'4 4.3
2015-May-18 14:34N 40°39' W 074°10'0 0.1
2015-May-18 13:34N 40°39' W 074°10'0 0.1
2015-May-18 12:34N 40°39' W 074°10'0 0.0
2015-May-18 11:34N 40°39' W 074°10'0 0.0
2015-May-18 10:34N 40°39' W 074°10'0 0.0
2015-May-18 09:34N 40°39' W 074°10'0 0.0
2015-May-18 08:34N 40°39' W 074°10'0 0.0
2015-May-18 07:33N 40°39' W 074°10'0 0.0
2015-May-18 06:34N 40°39' W 074°10'0 0.0
2015-May-18 05:34N 40°39' W 074°10'0 0.0
2015-May-18 04:34N 40°39' W 074°10'0 0.0
2015-May-18 03:34N 40°39' W 074°10'0 0.0
2015-May-18 02:34N 40°39' W 074°10'0 0.0
2015-May-18 01:34N 40°39' W 074°10'0 0.0
2015-May-18 00:34N 40°39' W 074°10'0 0.0
2015-May-17 23:33N 40°39' W 074°10'0 0.0
2015-May-17 22:34N 40°39' W 074°10'0 0.0
2015-May-17 21:34N 40°39' W 074°10'0 0.0
2015-May-17 20:34N 40°39' W 074°10'0 0.0
2015-May-17 19:34N 40°39' W 074°10'0 0.0
2015-May-17 18:34N 40°39' W 074°10'0 0.0
2015-May-17 17:34N 40°39' W 074°10'1 0.9
2015-May-17 16:30N 40°39' W 074°11'4 3.8
2015-May-17 15:33N 40°35' W 074°12'4 4.3
2015-May-17 14:34N 40°39' W 074°09'5 5.2
2015-May-17 13:33N 40°40' W 074°02'0 0.1
2015-May-17 12:33N 40°40' W 074°02'0 0.0
2015-May-17 11:34N 40°40' W 074°02'0 0.1
2015-May-17 10:34N 40°40' W 074°02'0 0.1
2015-May-17 09:33N 40°40' W 074°02'0 0.0
2015-May-17 08:34N 40°40' W 074°02'0 0.1
2015-May-17 07:33N 40°40' W 074°02'0 0.0
2015-May-17 06:34N 40°40' W 074°02'0 0.0
2015-May-17 05:34N 40°40' W 074°02'0 0.0
2015-May-17 04:34N 40°40' W 074°02'0 0.0
2015-May-17 03:34N 40°40' W 074°02'0 0.1
2015-May-17 02:33N 40°40' W 074°02'0 0.2
2015-May-17 01:34N 40°40' W 074°02'0 0.0
2015-May-17 00:34N 40°40' W 074°02'0 0.0
2015-May-16 23:33N 40°40' W 074°02'0 0.0
2015-May-16 22:34N 40°40' W 074°02'0 0.1
2015-May-16 21:33N 40°40' W 074°02'0 0.2
2015-May-16 20:33N 40°40' W 074°02'0 0.1
2015-May-16 19:34N 40°40' W 074°02'0 0.0
2015-May-16 18:33N 40°40' W 074°02'0 0.0
2015-May-16 17:33N 40°40' W 074°02'0 0.0
2015-May-16 16:34N 40°40' W 074°02'0 0.0
2015-May-16 15:33N 40°40' W 074°02'0 0.0
2015-May-16 14:34N 40°40' W 074°02'0 0.2
2015-May-16 13:34N 40°40' W 074°02'0 0.0
2015-May-16 12:34N 40°40' W 074°02'0 0.0
2015-May-16 11:34N 40°40' W 074°02'0 0.0
2015-May-16 10:34N 40°40' W 074°02'0 0.1
2015-May-16 09:34N 40°40' W 074°02'5 4.9
2015-May-16 08:32N 40°39' W 074°08'5 4.8
2015-May-16 07:33N 40°35' W 074°13'3 3.5
2015-May-16 06:34N 40°38' W 074°12'6 6.0
2015-May-16 05:34N 40°39' W 074°04'1 1.4
2015-May-16 04:33N 40°40' W 074°02'0 0.0
2015-May-16 03:33N 40°40' W 074°02'0 0.4
2015-May-16 02:33N 40°40' W 074°03'7 7.1
2015-May-16 01:34N 40°47' W 073°60'6 6.0
2015-May-16 00:33N 40°52' W 073°56'  
Track history (hours):
 
Tides and Currents Weather Stations Pressure Air Temp Water Temp Dewpoint Dewpoint Depression Visibility Wind Speed Wind Dir Waves Ship Positions

Tasman Sea

Owner: Kirby Offshore Marine, LLC, Staten Island, NY. More information available from US FCC via Universal Licensing System and Coast Guard Vessel Documentation Center.

Last reported at 2015-May-22 00:33 UTC. Time now 2015-May-22 22:09 UTC.
Position N 42°27' W 070°46'.

Length 38 m; draft 5 m.

Type: Tug. MMSI: 366910960.

Date/timePositionNaut miles runAvg speedWind from/ knotsBaromVisibWave heightAir tempDewpointWater temp
2015-May-22 00:33N 42°27' W 070°46'7 6.7
2015-May-21 23:31N 42°32' W 070°39'15 6.8
2015-May-21 21:15N 42°44' W 070°27'5 7.3
2015-May-21 20:32N 42°49' W 070°25'8 7.7
2015-May-21 19:31N 42°57' W 070°22'78 2.2
2015-May-20 08:33N 41°40' W 070°41'0 0.0
2015-May-20 03:05N 41°40' W 070°41'0 0.0
2015-May-20 02:33N 41°40' W 070°41'0 0.0
2015-May-20 01:33N 41°40' W 070°41'0 0.0
2015-May-20 00:34N 41°40' W 070°41'0 0.0
2015-May-19 23:33N 41°40' W 070°41'2 2.1
2015-May-19 22:25N 41°38' W 070°42'6 6.4
2015-May-19 21:33N 41°33' W 070°45'7 6.8
2015-May-19 20:29N 41°29' W 070°54'7 6.6
2015-May-19 19:25N 41°26' W 071°02'6 6.6
2015-May-19 18:33N 41°21' W 071°06'7 6.8
2015-May-19 17:33N 41°16' W 071°12'7 6.9
2015-May-19 16:34N 41°10' W 071°18'7 6.7
2015-May-19 15:33N 41°07' W 071°25'7 6.6
2015-May-19 14:33N 41°05' W 071°34'6 6.3
2015-May-19 13:33N 41°03' W 071°41'7 6.5
2015-May-19 12:33N 41°00' W 071°49'7 6.6
2015-May-19 11:34N 40°58' W 071°57'6 6.4
2015-May-19 10:33N 40°55' W 072°05'6 6.2
2015-May-19 09:33N 40°53' W 072°13'6 6.2
2015-May-19 08:33N 40°51' W 072°20'6 6.1
2015-May-19 07:34N 40°48' W 072°28'6 6.2
2015-May-19 06:34N 40°46' W 072°35'7 6.4
2015-May-19 05:30N 40°43' W 072°44'6 6.5
2015-May-19 04:33N 40°41' W 072°51'6 6.5
2015-May-19 03:33N 40°39' W 072°59'7 6.5
2015-May-19 02:32N 40°38' W 073°08'7 6.5
2015-May-19 01:24N 40°35' W 073°17'5 6.3
2015-May-19 00:33N 40°34' W 073°24'6 5.9
2015-May-18 23:32N 40°32' W 073°31'6 5.5
2015-May-18 22:28N 40°31' W 073°39'12 5.6
2015-May-18 20:22N 40°29' W 073°54'5 6.7
2015-May-18 19:33N 40°31' W 074°01'8 8.0
2015-May-18 18:34N 40°39' W 074°04'6 6.1
2015-May-18 17:33N 40°38' W 074°12'3 1.2
2015-May-18 15:27N 40°35' W 074°13'4 4.3
2015-May-18 14:34N 40°39' W 074°10'0 0.1
2015-May-18 13:34N 40°39' W 074°10'0 0.1
2015-May-18 12:34N 40°39' W 074°10'0 0.0
2015-May-18 11:34N 40°39' W 074°10'0 0.0
2015-May-18 10:34N 40°39' W 074°10'0 0.0
2015-May-18 09:34N 40°39' W 074°10'0 0.0
2015-May-18 08:34N 40°39' W 074°10'0 0.0
2015-May-18 07:33N 40°39' W 074°10'0 0.0
2015-May-18 06:34N 40°39' W 074°10'0 0.0
2015-May-18 05:34N 40°39' W 074°10'0 0.0
2015-May-18 04:34N 40°39' W 074°10'0 0.0
2015-May-18 03:34N 40°39' W 074°10'0 0.0
2015-May-18 02:34N 40°39' W 074°10'0 0.0
2015-May-18 01:34N 40°39' W 074°10'0 0.0
2015-May-18 00:34N 40°39' W 074°10'0 0.0
2015-May-17 23:33N 40°39' W 074°10'0 0.0
2015-May-17 22:34N 40°39' W 074°10'0 0.0
2015-May-17 21:34N 40°39' W 074°10'0 0.0
2015-May-17 20:34N 40°39' W 074°10'0 0.0
2015-May-17 19:34N 40°39' W 074°10'0 0.0
2015-May-17 18:34N 40°39' W 074°10'0 0.0
2015-May-17 17:34N 40°39' W 074°10'1 0.9
2015-May-17 16:30N 40°39' W 074°11'4 3.8
2015-May-17 15:33N 40°35' W 074°12'4 4.3
2015-May-17 14:34N 40°39' W 074°09'5 5.2
2015-May-17 13:33N 40°40' W 074°02'0 0.1
2015-May-17 12:33N 40°40' W 074°02'0 0.0
2015-May-17 11:34N 40°40' W 074°02'0 0.1
2015-May-17 10:34N 40°40' W 074°02'0 0.1
2015-May-17 09:33N 40°40' W 074°02'0 0.0
2015-May-17 08:34N 40°40' W 074°02'0 0.1
2015-May-17 07:33N 40°40' W 074°02'0 0.0
2015-May-17 06:34N 40°40' W 074°02'0 0.0
2015-May-17 05:34N 40°40' W 074°02'0 0.0
2015-May-17 04:34N 40°40' W 074°02'0 0.0
2015-May-17 03:34N 40°40' W 074°02'0 0.1
2015-May-17 02:33N 40°40' W 074°02'0 0.2
2015-May-17 01:34N 40°40' W 074°02'0 0.0
2015-May-17 00:34N 40°40' W 074°02'0 0.0
2015-May-16 23:33N 40°40' W 074°02'0 0.0
2015-May-16 22:34N 40°40' W 074°02'0 0.1
2015-May-16 21:33N 40°40' W 074°02'0 0.2
2015-May-16 20:33N 40°40' W 074°02'0 0.1
2015-May-16 19:34N 40°40' W 074°02'0 0.0
2015-May-16 18:33N 40°40' W 074°02'0 0.0
2015-May-16 17:33N 40°40' W 074°02'0 0.0
2015-May-16 16:34N 40°40' W 074°02'0 0.0
2015-May-16 15:33N 40°40' W 074°02'0 0.0
2015-May-16 14:34N 40°40' W 074°02'0 0.2
2015-May-16 13:34N 40°40' W 074°02'0 0.0
2015-May-16 12:34N 40°40' W 074°02'0 0.0
2015-May-16 11:34N 40°40' W 074°02'0 0.0
2015-May-16 10:34N 40°40' W 074°02'0 0.1
2015-May-16 09:34N 40°40' W 074°02'5 4.9
2015-May-16 08:32N 40°39' W 074°08'5 4.8
2015-May-16 07:33N 40°35' W 074°13'3 3.5
2015-May-16 06:34N 40°38' W 074°12'6 6.0
2015-May-16 05:34N 40°39' W 074°04'1 1.4
2015-May-16 04:33N 40°40' W 074°02'0 0.0
2015-May-16 03:33N 40°40' W 074°02'0 0.4
2015-May-16 02:33N 40°40' W 074°03'7 7.1
2015-May-16 01:34N 40°47' W 073°60'6 6.0
2015-May-16 00:33N 40°52' W 073°56'  

Dump ship's entire track history